createdAt,value
2022-10-20T00:02:26.074Z,36.30
2022-10-20T00:04:54.789Z,36.77
2022-10-20T00:07:30.253Z,38.83
2022-10-20T00:10:01.595Z,41.93
2022-10-20T00:12:32.327Z,36.20
2022-10-20T00:15:02.498Z,37.93
2022-10-20T00:17:31.145Z,38.50
2022-10-20T00:20:01.618Z,36.93
2022-10-20T00:22:35.135Z,34.90
2022-10-20T00:25:05.707Z,36.73
2022-10-20T00:27:34.478Z,37.67
2022-10-20T00:30:06.494Z,37.60
2022-10-20T00:32:36.984Z,36.10
2022-10-20T00:35:07.723Z,39.07
2022-10-20T00:37:39.208Z,43.20
2022-10-20T00:40:13.280Z,41.23
2022-10-20T00:42:50.708Z,35.13
2022-10-20T00:45:22.308Z,41.57
2022-10-20T00:47:57.423Z,38.50
2022-10-20T00:50:29.151Z,48.03
2022-10-20T00:53:00.381Z,40.00
2022-10-20T00:55:31.202Z,37.93
2022-10-20T00:58:02.171Z,38.67
2022-10-20T01:00:31.188Z,43.83
2022-10-20T01:03:01.966Z,39.73
2022-10-20T01:05:30.624Z,45.00
2022-10-20T01:08:01.836Z,38.63
2022-10-20T01:10:42.392Z,39.70
2022-10-20T01:13:21.272Z,48.10
2022-10-20T01:15:58.729Z,48.77
2022-10-20T01:18:35.555Z,46.43
2022-10-20T01:21:32.487Z,44.23
2022-10-20T01:24:19.117Z,45.20
2022-10-20T01:27:26.939Z,40.07
2022-10-20T01:30:00.033Z,40.40
2022-10-20T01:32:39.144Z,45.47
2022-10-20T01:35:15.500Z,44.70
2022-10-20T01:37:51.207Z,43.47
2022-10-20T01:40:27.969Z,40.30
2022-10-20T01:43:02.802Z,43.37
2022-10-20T01:46:18.261Z,46.33
2022-10-20T01:48:49.226Z,41.20
2022-10-20T01:51:17.887Z,67.70
2022-10-20T01:53:46.480Z,64.90
2022-10-20T01:56:19.958Z,65.13
2022-10-20T01:59:12.451Z,58.13
2022-10-20T02:01:56.223Z,53.07
2022-10-20T02:04:34.863Z,45.87
2022-10-20T02:07:13.371Z,48.73
2022-10-20T02:09:48.035Z,42.07
2022-10-20T02:12:23.855Z,51.23
2022-10-20T02:14:56.062Z,46.33
2022-10-20T02:17:24.893Z,47.60
2022-10-20T02:19:54.679Z,50.33
2022-10-20T02:22:24.529Z,53.37
2022-10-20T02:24:53.516Z,50.30
2022-10-20T02:27:26.154Z,47.80
2022-10-20T02:30:00.964Z,47.73
2022-10-20T02:32:31.592Z,50.20
2022-10-20T02:35:04.956Z,47.90
2022-10-20T02:37:36.138Z,46.30
2022-10-20T02:40:06.048Z,54.60
2022-10-20T02:42:34.630Z,42.27
2022-10-20T02:45:05.799Z,46.33
2022-10-20T02:47:34.990Z,51.17
2022-10-20T02:50:03.983Z,45.17
2022-10-20T02:52:32.691Z,49.83
2022-10-20T02:55:01.293Z,47.17
2022-10-20T02:57:30.052Z,41.83
2022-10-20T02:59:58.767Z,46.50
2022-10-20T03:02:28.812Z,45.80
2022-10-20T03:04:57.470Z,43.63
2022-10-20T03:07:26.151Z,41.10
2022-10-20T03:09:54.873Z,46.90
2022-10-20T03:12:23.454Z,45.37
2022-10-20T03:14:52.158Z,41.27
2022-10-20T03:17:20.765Z,45.90
2022-10-20T03:19:51.463Z,47.93
2022-10-20T03:22:20.374Z,48.80
2022-10-20T03:24:49.027Z,45.90
2022-10-20T03:27:17.778Z,42.83
2022-10-20T03:29:46.538Z,44.60
2022-10-20T03:32:15.252Z,48.13
2022-10-20T03:34:43.870Z,47.70
2022-10-20T03:37:14.273Z,41.73
2022-10-20T03:39:43.223Z,39.33
2022-10-20T03:42:12.194Z,42.30
2022-10-20T03:44:41.530Z,42.53
2022-10-20T03:47:11.082Z,36.03
2022-10-20T03:49:39.774Z,15.80
2022-10-20T03:52:09.174Z,38.83
2022-10-20T03:54:40.995Z,52.07
2022-10-20T03:57:09.637Z,48.53
2022-10-20T03:59:38.829Z,44.27
2022-10-20T04:02:07.584Z,39.07
2022-10-20T04:04:36.222Z,32.60
2022-10-20T04:07:04.929Z,33.53
2022-10-20T04:09:33.765Z,15.48
2022-10-20T04:12:03.810Z,32.43
2022-10-20T04:14:32.517Z,50.43
2022-10-20T04:17:01.233Z,46.53
2022-10-20T04:19:29.870Z,51.10
2022-10-20T04:21:58.528Z,27.63
2022-10-20T04:24:27.260Z,49.30
2022-10-20T04:26:55.944Z,69.83
2022-10-20T04:29:26.131Z,64.90
2022-10-20T04:31:54.717Z,54.87
2022-10-20T04:34:23.617Z,53.77
2022-10-20T04:36:52.699Z,40.13
2022-10-20T04:39:21.589Z,41.73
2022-10-20T04:41:50.436Z,45.27
2022-10-20T04:44:19.292Z,49.60
2022-10-20T04:46:49.526Z,43.67
2022-10-20T04:49:18.451Z,38.63
2022-10-20T04:51:47.504Z,37.03
2022-10-20T04:54:16.491Z,34.93
2022-10-20T04:56:45.226Z,34.43
2022-10-20T04:59:14.128Z,32.70
2022-10-20T05:01:43.123Z,30.70
2022-10-20T05:04:13.497Z,33.77
2022-10-20T05:06:42.303Z,31.13
2022-10-20T05:09:12.436Z,37.10
2022-10-20T05:11:41.320Z,38.60
2022-10-20T05:14:10.487Z,42.97
2022-10-20T05:16:39.436Z,40.90
2022-10-20T05:19:08.287Z,38.63
2022-10-20T05:21:38.752Z,35.50
2022-10-20T05:24:08.252Z,37.20
2022-10-20T05:26:37.640Z,35.37
2022-10-20T05:29:07.943Z,36.80
2022-10-20T05:31:39.071Z,38.93
2022-10-20T05:34:08.031Z,37.43
2022-10-20T05:36:38.427Z,40.30
2022-10-20T05:39:07.197Z,41.40
2022-10-20T05:41:38.828Z,38.63
2022-10-20T05:44:10.079Z,39.20
2022-10-20T05:46:41.881Z,41.80
2022-10-20T05:49:15.843Z,37.63
2022-10-20T05:51:47.222Z,37.30
2022-10-20T05:54:16.750Z,41.37
2022-10-20T05:56:45.932Z,44.27
2022-10-20T05:59:15.225Z,43.20
2022-10-20T06:01:49.302Z,46.50
2022-10-20T06:04:19.769Z,42.90
2022-10-20T06:06:49.838Z,48.23
2022-10-20T06:09:20.060Z,51.90
2022-10-20T06:11:49.068Z,64.13
2022-10-20T06:14:18.644Z,75.47
2022-10-20T06:16:47.324Z,68.40
2022-10-20T06:19:16.213Z,69.53
2022-10-20T06:21:44.891Z,72.57
2022-10-20T06:24:15.226Z,68.13
2022-10-20T06:26:45.307Z,62.77
2022-10-20T06:29:16.338Z,40.95
2022-10-20T06:31:46.708Z,45.13
2022-10-20T06:34:17.313Z,46.22
2022-10-20T06:36:46.662Z,38.00
2022-10-20T06:39:18.991Z,38.40
2022-10-20T06:41:50.512Z,44.73
2022-10-20T06:44:19.494Z,48.17
2022-10-20T06:46:48.227Z,50.80
2022-10-20T06:49:16.999Z,49.07
2022-10-20T06:51:45.742Z,47.87
2022-10-20T06:54:15.956Z,44.83
2022-10-20T06:56:44.623Z,44.50
2022-10-20T06:59:13.319Z,43.37
2022-10-20T07:01:42.470Z,43.07
2022-10-20T07:04:15.661Z,38.87
2022-10-20T07:06:46.132Z,37.27
2022-10-20T07:09:18.761Z,37.33
2022-10-20T07:11:47.805Z,40.67
2022-10-20T07:14:16.619Z,37.63
2022-10-20T07:16:45.396Z,37.23
2022-10-20T07:19:14.105Z,33.93
2022-10-20T07:21:45.477Z,34.47
2022-10-20T07:24:17.209Z,33.83
2022-10-20T07:26:46.062Z,28.47
2022-10-20T07:29:15.178Z,29.67
2022-10-20T07:31:45.508Z,28.30
2022-10-20T07:34:31.220Z,29.57
2022-10-20T07:37:00.178Z,28.87
2022-10-20T07:39:30.646Z,29.33
2022-10-20T07:41:59.385Z,30.73
2022-10-20T07:44:28.060Z,25.43
2022-10-20T07:46:56.721Z,27.67
2022-10-20T07:52:16.716Z,20.37
2022-10-20T07:54:47.594Z,19.73
2022-10-20T07:57:16.394Z,20.23
2022-10-20T07:59:45.218Z,18.57
2022-10-20T08:02:16.015Z,17.50
2022-10-20T08:04:45.955Z,17.67
2022-10-20T08:07:14.924Z,16.60
2022-10-20T08:12:15.314Z,16.13
2022-10-20T08:14:44.920Z,18.77
2022-10-20T08:17:13.699Z,20.33
2022-10-20T08:19:57.868Z,17.90
2022-10-20T08:22:26.507Z,14.87
2022-10-20T08:24:55.485Z,17.57
2022-10-20T08:27:25.753Z,22.27
2022-10-20T08:30:00.178Z,32.23
2022-10-20T08:32:35.455Z,16.87
2022-10-20T08:35:05.006Z,19.53
2022-10-20T08:37:34.658Z,22.67
2022-10-20T08:40:03.885Z,16.83
2022-10-20T08:42:40.929Z,19.10
2022-10-20T08:45:16.009Z,20.83
2022-10-20T08:47:47.369Z,16.37
2022-10-20T08:50:17.872Z,18.87
2022-10-20T08:52:49.405Z,33.80
2022-10-20T08:55:26.197Z,27.70
2022-10-20T08:58:02.100Z,19.93
2022-10-20T09:00:32.484Z,18.73
2022-10-20T09:03:12.456Z,22.50
2022-10-20T09:05:44.728Z,22.27
2022-10-20T09:08:13.430Z,21.53
2022-10-20T09:10:46.122Z,19.83
2022-10-20T09:13:23.815Z,19.20
2022-10-20T09:15:55.349Z,16.53
2022-10-20T09:18:24.145Z,19.13
2022-10-20T09:20:55.279Z,18.13
2022-10-20T09:23:40.494Z,17.40
2022-10-20T09:26:24.994Z,17.13
2022-10-20T09:29:13.886Z,16.80
2022-10-20T09:31:45.910Z,14.33
2022-10-20T09:34:26.272Z,15.10
2022-10-20T09:37:00.247Z,11.13
2022-10-20T09:39:31.211Z,11.80
2022-10-20T09:42:07.271Z,11.10
2022-10-20T09:44:50.756Z,12.17
2022-10-20T09:47:20.584Z,12.83
2022-10-20T09:49:58.441Z,11.83
2022-10-20T09:52:34.714Z,11.57
2022-10-20T09:55:06.135Z,11.30
2022-10-20T09:57:35.119Z,12.50
2022-10-20T10:00:25.165Z,11.30
2022-10-20T10:03:21.601Z,10.80
2022-10-20T10:05:55.312Z,11.90
2022-10-20T10:08:26.537Z,11.63
2022-10-20T10:11:06.283Z,9.63
2022-10-20T10:13:40.934Z,9.47
2022-10-20T10:16:14.402Z,10.77
2022-10-20T10:18:48.495Z,8.13
2022-10-20T10:21:18.260Z,10.67
2022-10-20T10:23:55.855Z,11.70
2022-10-20T10:26:54.983Z,9.37
2022-10-20T10:29:29.783Z,7.67
2022-10-20T10:32:04.102Z,6.43
2022-10-20T10:34:52.537Z,6.53
2022-10-20T10:39:57.012Z,9.47
2022-10-20T10:42:57.926Z,8.57
2022-10-20T10:45:45.413Z,12.87
2022-10-20T10:48:57.250Z,8.63
2022-10-20T10:51:43.071Z,5.63
2022-10-20T10:54:27.462Z,7.23
2022-10-20T10:57:00.519Z,10.73
2022-10-20T10:59:33.935Z,15.37
2022-10-20T11:02:23.106Z,10.57
2022-10-20T11:05:24.316Z,16.73
2022-10-20T11:08:05.931Z,9.00
2022-10-20T11:10:41.660Z,5.70
2022-10-20T11:13:31.860Z,12.40
2022-10-20T11:16:09.928Z,15.27
2022-10-20T11:18:55.810Z,13.27
2022-10-20T11:21:30.696Z,11.87
2022-10-20T11:24:13.306Z,15.27
2022-10-20T11:26:44.989Z,15.57
2022-10-20T11:29:20.958Z,13.37
2022-10-20T11:31:55.184Z,11.20
2022-10-20T11:34:31.275Z,18.63
2022-10-20T11:37:05.137Z,20.20
2022-10-20T11:39:44.342Z,25.07
2022-10-20T11:42:25.052Z,32.10
2022-10-20T11:44:55.805Z,27.87
2022-10-20T11:47:32.182Z,25.03
2022-10-20T11:50:01.345Z,24.07
2022-10-20T11:53:00.778Z,26.83
2022-10-20T11:56:05.965Z,23.83
2022-10-20T11:59:03.489Z,30.13
2022-10-20T12:04:52.962Z,41.30
2022-10-20T12:07:46.492Z,32.07
2022-10-20T12:10:42.124Z,38.13
2022-10-20T12:13:27.121Z,38.00
2022-10-20T12:15:55.987Z,45.27
2022-10-20T12:18:28.966Z,39.03
2022-10-20T12:21:01.769Z,44.40
2022-10-20T12:24:04.304Z,39.60
2022-10-20T12:27:17.891Z,43.33
2022-10-20T12:30:05.647Z,45.37
2022-10-20T12:32:57.831Z,38.77
2022-10-20T12:36:01.041Z,33.57
2022-10-20T12:38:32.334Z,31.20
2022-10-20T12:41:02.875Z,27.83
2022-10-20T12:43:37.072Z,24.37
2022-10-20T12:46:12.082Z,21.03
2022-10-20T12:48:47.108Z,14.50
2022-10-20T12:51:23.322Z,16.27
2022-10-20T12:54:02.159Z,15.67
2022-10-20T12:56:38.440Z,18.23
2022-10-20T12:59:46.702Z,18.83
2022-10-20T13:02:44.461Z,19.43
2022-10-20T13:05:43.112Z,16.53
2022-10-20T13:08:34.095Z,20.17
2022-10-20T13:11:41.082Z,15.23
2022-10-20T13:14:39.546Z,21.60
2022-10-20T13:17:19.478Z,28.03
2022-10-20T13:19:52.543Z,20.50
2022-10-20T13:22:46.951Z,23.97
2022-10-20T13:25:27.725Z,32.43
2022-10-20T13:28:13.940Z,27.97
2022-10-20T13:31:10.986Z,25.83
2022-10-20T13:36:50.635Z,29.97
2022-10-20T13:39:24.450Z,31.07
2022-10-20T13:42:01.238Z,28.87
2022-10-20T13:44:41.463Z,25.93
2022-10-20T13:47:29.477Z,27.73
2022-10-20T13:50:06.084Z,26.83
2022-10-20T13:52:39.826Z,29.37
2022-10-20T13:55:16.129Z,29.20
2022-10-20T13:57:55.568Z,36.63
2022-10-20T14:00:28.456Z,33.70
2022-10-20T14:03:00.264Z,35.20
2022-10-20T14:05:30.598Z,34.00
2022-10-20T14:08:06.171Z,37.53
2022-10-20T14:10:44.336Z,34.13
2022-10-20T14:13:17.511Z,35.50
2022-10-20T14:15:48.964Z,40.47
2022-10-20T14:18:24.806Z,42.17
2022-10-20T14:21:00.298Z,31.33
2022-10-20T14:23:35.819Z,30.53
2022-10-20T14:26:05.392Z,34.77
2022-10-20T14:28:36.843Z,35.83
2022-10-20T14:31:05.999Z,38.87
2022-10-20T14:33:39.015Z,34.33
2022-10-20T14:36:08.026Z,43.07
2022-10-20T14:38:39.316Z,33.97
2022-10-20T14:41:09.949Z,39.75
2022-10-20T14:43:42.093Z,21.47
2022-10-20T14:46:13.965Z,32.00
2022-10-20T14:48:46.126Z,91.70
2022-10-20T14:51:39.900Z,83.83
2022-10-20T14:54:27.738Z,53.65
2022-10-20T14:56:58.486Z,27.77
2022-10-20T14:59:28.771Z,30.57
2022-10-20T15:02:10.967Z,36.40
2022-10-20T15:04:41.475Z,27.23
2022-10-20T15:07:16.401Z,28.90
2022-10-20T15:09:48.587Z,26.87
2022-10-20T15:12:20.143Z,22.80
2022-10-20T15:14:51.176Z,40.40
2022-10-20T15:17:34.458Z,25.27
2022-10-20T15:20:32.512Z,26.33
2022-10-20T15:23:03.418Z,28.23
2022-10-20T15:25:38.895Z,29.43
2022-10-20T15:28:35.887Z,25.97
2022-10-20T15:31:06.614Z,31.47
2022-10-20T15:33:35.323Z,32.20
2022-10-20T15:36:04.025Z,38.53
2022-10-20T15:38:33.257Z,22.50
2022-10-20T15:41:03.380Z,16.20
2022-10-20T15:43:32.040Z,19.30
2022-10-20T15:46:00.722Z,16.13
2022-10-20T15:48:29.425Z,20.00
2022-10-20T15:50:59.406Z,21.43
2022-10-20T15:53:28.130Z,18.00
2022-10-20T15:55:56.851Z,18.87
2022-10-20T15:58:26.923Z,87.13
2022-10-20T16:00:55.592Z,94.07
2022-10-20T16:03:24.503Z,81.87
2022-10-20T16:05:53.164Z,43.53
2022-10-20T16:08:21.912Z,37.13
2022-10-20T16:10:50.609Z,24.27
2022-10-20T16:13:21.351Z,21.97
2022-10-20T16:15:51.563Z,20.37
2022-10-20T16:18:20.433Z,20.13
2022-10-20T16:20:49.075Z,23.77
2022-10-20T16:23:17.916Z,21.27
2022-10-20T16:25:46.569Z,23.17
2022-10-20T16:28:15.351Z,22.73
2022-10-20T16:30:44.062Z,21.20
2022-10-20T16:33:14.291Z,22.87
2022-10-20T16:35:43.609Z,29.20
2022-10-20T16:38:13.108Z,29.97
2022-10-20T16:40:41.706Z,36.10
2022-10-20T16:43:10.328Z,47.97
2022-10-20T16:45:41.175Z,49.03
2022-10-20T16:48:09.820Z,42.90
2022-10-20T16:50:44.579Z,35.03
2022-10-20T16:53:13.248Z,27.93
2022-10-20T16:55:41.986Z,26.47
2022-10-20T16:58:10.581Z,23.40
2022-10-20T17:00:39.301Z,24.70
2022-10-20T17:03:07.942Z,25.33
2022-10-20T17:05:36.604Z,36.00
2022-10-20T17:08:06.834Z,46.80
2022-10-20T17:10:35.586Z,32.90
2022-10-20T17:13:04.194Z,31.50
2022-10-20T17:15:32.897Z,33.00
2022-10-20T17:18:01.583Z,35.87
2022-10-20T17:20:30.263Z,31.33
2022-10-20T17:22:58.921Z,28.67
2022-10-20T17:25:28.952Z,29.67
2022-10-20T17:27:58.598Z,28.63
2022-10-20T17:30:27.266Z,29.70
2022-10-20T17:32:55.883Z,27.50
2022-10-20T17:35:24.555Z,27.10
2022-10-20T17:37:53.398Z,23.00
2022-10-20T17:40:22.435Z,23.43
2022-10-20T17:42:52.744Z,24.03
2022-10-20T17:45:21.769Z,25.77
2022-10-20T17:47:51.224Z,22.57
2022-10-20T17:50:19.895Z,23.23
2022-10-20T17:52:48.578Z,19.90
2022-10-20T17:55:17.378Z,26.53
2022-10-20T17:57:46.219Z,33.30
2022-10-20T18:00:23.117Z,24.00
2022-10-20T18:03:05.341Z,25.17
2022-10-20T18:05:37.438Z,29.43
2022-10-20T18:08:06.393Z,30.30
2022-10-20T18:10:35.449Z,36.93
2022-10-20T18:13:05.190Z,37.37
2022-10-20T18:15:35.441Z,42.20
2022-10-20T18:18:04.092Z,40.63
2022-10-20T18:20:34.351Z,44.93
2022-10-20T18:23:03.063Z,35.43
2022-10-20T18:25:31.825Z,37.17
2022-10-20T18:28:00.507Z,36.90
2022-10-20T18:30:29.131Z,51.40
2022-10-20T18:32:59.399Z,43.60
2022-10-20T18:35:28.344Z,38.60
2022-10-20T18:37:59.732Z,38.53
2022-10-20T18:40:28.402Z,36.57
2022-10-20T18:42:57.335Z,39.20
2022-10-20T18:45:26.281Z,35.87
2022-10-20T18:47:55.294Z,37.97
2022-10-20T18:50:25.337Z,37.27
2022-10-20T18:52:53.992Z,36.37
2022-10-20T18:55:25.681Z,38.30
2022-10-20T18:57:54.405Z,37.27
2022-10-20T19:00:23.201Z,37.67
2022-10-20T19:02:55.795Z,41.30
2022-10-20T19:05:28.225Z,40.37
2022-10-20T19:07:56.888Z,50.40
2022-10-20T19:10:25.492Z,48.17
2022-10-20T19:12:55.095Z,84.17
2022-10-20T19:15:24.220Z,77.03
2022-10-20T19:17:58.057Z,69.57
2022-10-20T19:20:35.174Z,57.27
2022-10-20T19:23:04.693Z,50.63
2022-10-20T19:25:35.811Z,43.90
2022-10-20T19:28:04.578Z,45.83
2022-10-20T19:30:36.067Z,43.73
2022-10-20T19:33:04.846Z,45.60
2022-10-20T19:35:35.515Z,43.10
2022-10-20T19:38:04.276Z,46.30
2022-10-20T19:40:34.092Z,48.00
2022-10-20T19:43:02.747Z,43.13
2022-10-20T19:45:31.546Z,45.70
2022-10-20T19:48:00.152Z,50.87
2022-10-20T19:50:28.884Z,50.83
2022-10-20T19:53:00.835Z,51.27
2022-10-20T19:55:32.100Z,52.17
2022-10-20T19:58:03.889Z,54.97
2022-10-20T20:00:35.060Z,53.63
2022-10-20T20:03:06.191Z,60.97
2022-10-20T20:05:34.857Z,56.40
2022-10-20T20:08:05.056Z,56.03
2022-10-20T20:10:34.644Z,51.22
2022-10-20T20:13:03.453Z,45.10
2022-10-20T20:15:32.227Z,42.10
2022-10-20T20:18:01.013Z,43.97
2022-10-20T20:20:29.719Z,51.03
2022-10-20T20:22:58.412Z,52.50
2022-10-20T20:25:28.547Z,59.03
2022-10-20T20:27:57.227Z,60.17
2022-10-20T20:30:25.849Z,52.27
2022-10-20T20:32:54.642Z,53.97
2022-10-20T20:35:23.459Z,53.43
2022-10-20T20:37:52.069Z,62.73
2022-10-20T20:40:20.801Z,59.93
2022-10-20T20:42:50.846Z,61.03
2022-10-20T20:45:19.531Z,68.70
2022-10-20T20:47:48.472Z,60.37
2022-10-20T20:50:17.262Z,70.70
2022-10-20T20:52:46.032Z,64.80
2022-10-20T20:55:14.658Z,72.13
2022-10-20T20:57:43.251Z,87.93
2022-10-20T21:00:14.732Z,73.77
2022-10-20T21:02:45.939Z,75.73
2022-10-20T21:05:15.443Z,81.90
2022-10-20T21:07:44.088Z,86.13
2022-10-20T21:10:12.738Z,96.20
2022-10-20T21:12:41.779Z,86.27
2022-10-20T21:15:12.541Z,93.83
2022-10-20T21:17:41.225Z,111.50
2022-10-20T21:20:11.138Z,92.03
2022-10-20T21:22:40.004Z,107.23
2022-10-20T21:25:09.470Z,111.97
2022-10-20T21:27:38.140Z,91.43
2022-10-20T21:30:07.530Z,98.90
2022-10-20T21:32:38.297Z,96.23
2022-10-20T21:35:08.178Z,106.20
2022-10-20T21:37:36.901Z,103.83
2022-10-20T21:40:10.143Z,93.77
2022-10-20T21:42:41.937Z,116.90
2022-10-20T21:45:14.349Z,110.13
2022-10-20T21:47:47.040Z,83.78
2022-10-20T21:50:15.940Z,77.37
2022-10-20T21:52:44.586Z,96.70
2022-10-20T21:55:13.280Z,101.60
2022-10-20T21:57:43.162Z,91.33
2022-10-20T22:00:12.910Z,88.63
2022-10-20T22:02:41.898Z,90.67
2022-10-20T22:05:12.126Z,90.67
2022-10-20T22:07:41.000Z,95.50
2022-10-20T22:10:10.519Z,88.47
2022-10-20T22:12:46.404Z,91.27
2022-10-20T22:15:15.436Z,94.77
2022-10-20T22:17:44.905Z,97.87
2022-10-20T22:20:16.014Z,100.43
2022-10-20T22:22:48.181Z,91.53
2022-10-20T22:25:16.919Z,95.03
2022-10-20T22:27:47.985Z,95.50
2022-10-20T22:30:17.188Z,93.57
2022-10-20T22:32:45.875Z,99.10
2022-10-20T22:35:16.172Z,92.53
2022-10-20T22:37:44.811Z,85.37
2022-10-20T22:40:14.457Z,84.00
2022-10-20T22:42:43.108Z,88.47
2022-10-20T22:45:12.558Z,88.97
2022-10-20T22:47:41.335Z,88.57
2022-10-20T22:50:10.170Z,81.63
2022-10-20T22:52:40.476Z,90.10
2022-10-20T22:55:10.039Z,81.93
2022-10-20T22:57:38.705Z,86.77
2022-10-20T23:00:13.033Z,82.00
2022-10-20T23:02:42.006Z,86.43
2022-10-20T23:05:11.690Z,95.63
2022-10-20T23:07:42.162Z,90.70
2022-10-20T23:10:11.652Z,87.83
2022-10-20T23:12:40.743Z,78.40
2022-10-20T23:15:10.112Z,80.57
2022-10-20T23:17:39.150Z,93.43
2022-10-20T23:20:08.659Z,81.83
2022-10-20T23:22:37.418Z,81.07
2022-10-20T23:25:08.528Z,88.57
2022-10-20T23:27:40.265Z,81.00
2022-10-20T23:30:15.796Z,76.00
2022-10-20T23:32:49.727Z,77.33
2022-10-20T23:35:18.324Z,78.67
2022-10-20T23:37:48.228Z,70.80
2022-10-20T23:40:18.492Z,78.60
2022-10-20T23:42:47.083Z,79.87
2022-10-20T23:45:15.818Z,75.13
2022-10-20T23:47:44.958Z,62.13
2022-10-20T23:50:13.668Z,73.67
2022-10-20T23:52:42.234Z,65.30
2022-10-20T23:55:14.649Z,68.73
2022-10-20T23:57:45.627Z,67.60
